Elm City, North Carolina
Current Conditions -  °F | °C
As of 2:53 PM on Wednesday 28 Jan 2015 (Local Time) from KRWI Reporting Station
Clear Clear  
Wind Chill: 40°   Ceiling: Unl
Heat Index: 45°   Visibility: 10mi
Dew Point:   Wind: 9mph
Humidity: 22%   Direction: 330°NNW
Pressure: 30.21"   Gusts: NA
Location:  35.81°N, 77.86°W
Report Text: KRWI 281953Z AUTO 33008KT 10SM CLR 07/M13 A3021 RMK AO2 SLP232 T00721133
Loading
Personal Weather Stations






























Interactive Weather Map New forecast layout! Learn more

10-Day Weather Forecast

Advertisements
Track Severe Weather on mobile